Rider Profile

Jeff Shirazi: Commuter
Racing Team: Friends of Consider Biking
Commuting Team: Nationwide Bicycle Commuters
 
Years Cycling: 1 Age: 48
Height: 5'11" Weight: 163
Days/Month: 3 Miles YTD: 113 Days YTD: 9
 
Born: Elmira, NY
Resides: Grandview, OH
Occupation: Actuary, Nationwide
Favorite Quote: Wherever you go......there you are.
Why I Ride: Exercise. Makes getting to work interesting.
My Commute: A relatively flat 4 miles to downtown. Pretty easy compared to what some of you all are doing. Lincoln, Goodale, Urlin, Watermark, 670-Trail, Northbank, Long, High.
Other Years: [2012] 

2013 Race Results

No results have been entered for 2013

Ride Log

Week of June 19, 2017 1 Ride  •  10 Miles  •  0.7 hours
Mon 6/19 10 miles 40 min Burr Goodale Trail. METAR KOSU 191653Z 27013G20KT 10SM SCT060 26/14 A2987 RMK AO2 SLP109 T02610144 
Week of June 12, 2017 1 Ride  •  10 Miles  •  0.3 hours
Tue 6/13 10 miles 20 min 670 Trail 
Week of June 5, 2017 2 Rides  •  30 Miles
Thu 6/8 15 miles   Riding with Daria to Architecture Camp 
Tue 6/6 15 miles   Riding with Daria to Architecture Camp 
Week of May 29, 2017 2 Rides  •  10 Miles  •  0.7 hours
Thu 6/1 5 miles 20 min 670 Trail 
Tue 5/30 5 miles 20 min 670 Trail 
Week of May 8, 2017 2 Rides  •  33 Miles  •  0.4 hours
Mon 5/8 5 miles 20 min 670 Trail 
Mon 5/8 28 miles 2 min From work downtown to Hills market. 55 minutes north, with 15kt wind from 300. 
MORE RIDES